createdAt,value
2023-07-24T00:01:26.903Z,9.80
2023-07-24T00:03:30.183Z,10.63
2023-07-24T00:05:33.238Z,9.60
2023-07-24T00:07:36.297Z,8.40
2023-07-24T00:09:39.391Z,8.73
2023-07-24T00:11:42.428Z,6.60
2023-07-24T00:13:45.459Z,8.77
2023-07-24T00:15:49.978Z,7.80
2023-07-24T00:17:53.142Z,8.00
2023-07-24T00:19:55.282Z,8.30
2023-07-24T00:21:58.393Z,8.23
2023-07-24T00:24:01.524Z,7.37
2023-07-24T00:26:04.566Z,8.97
2023-07-24T00:28:07.716Z,6.93
2023-07-24T00:30:12.461Z,9.97
2023-07-24T00:32:16.957Z,8.30
2023-07-24T00:34:20.057Z,10.43
2023-07-24T00:36:23.198Z,8.80
2023-07-24T00:38:26.413Z,8.77
2023-07-24T00:40:29.453Z,8.27
2023-07-24T00:42:32.449Z,8.93
2023-07-24T00:44:35.541Z,8.90
2023-07-24T00:46:39.289Z,8.50
2023-07-24T00:48:43.886Z,10.87
2023-07-24T00:50:46.813Z,10.20
2023-07-24T00:52:49.966Z,12.10
2023-07-24T00:54:53.986Z,8.57
2023-07-24T00:56:57.134Z,9.57
2023-07-24T00:59:00.270Z,9.20
2023-07-24T01:01:03.522Z,9.77
2023-07-24T01:03:06.788Z,10.10
2023-07-24T01:05:13.542Z,7.80
2023-07-24T01:07:17.707Z,8.27
2023-07-24T01:09:20.838Z,10.00
2023-07-24T01:11:28.701Z,9.60
2023-07-24T01:13:35.256Z,9.47
2023-07-24T01:15:41.616Z,10.60
2023-07-24T01:17:49.480Z,9.47
2023-07-24T01:19:57.127Z,6.90
2023-07-24T01:22:06.479Z,8.57
2023-07-24T01:24:17.335Z,8.53
2023-07-24T01:26:24.998Z,13.00
2023-07-24T01:28:28.526Z,10.80
2023-07-24T01:30:31.669Z,11.73
2023-07-24T01:32:34.757Z,10.23
2023-07-24T01:34:37.867Z,8.73
2023-07-24T01:36:41.338Z,8.43
2023-07-24T01:38:44.518Z,10.23
2023-07-24T01:40:48.026Z,9.00
2023-07-24T01:42:53.170Z,9.20
2023-07-24T01:44:56.285Z,10.97
2023-07-24T01:46:59.343Z,12.50
2023-07-24T01:49:02.445Z,9.30
2023-07-24T01:51:05.607Z,11.60
2023-07-24T01:53:07.736Z,9.60
2023-07-24T01:55:11.218Z,8.00
2023-07-24T01:57:14.278Z,9.73
2023-07-24T01:59:18.758Z,7.80
2023-07-24T02:01:21.910Z,8.03
2023-07-24T02:03:25.175Z,9.07
2023-07-24T02:05:28.817Z,10.97
2023-07-24T02:07:32.522Z,10.07
2023-07-24T02:09:35.622Z,8.00
2023-07-24T02:11:38.682Z,8.17
2023-07-24T02:13:41.797Z,10.07
2023-07-24T02:15:46.298Z,10.57
2023-07-24T02:17:49.430Z,9.20
2023-07-24T02:19:55.572Z,10.23
2023-07-24T02:21:58.703Z,9.87
2023-07-24T02:24:01.102Z,9.23
2023-07-24T02:26:04.176Z,9.27
2023-07-24T02:28:06.342Z,11.80
2023-07-24T02:30:10.374Z,10.77
2023-07-24T02:32:14.899Z,9.03
2023-07-24T02:34:19.187Z,10.10
2023-07-24T02:36:22.311Z,10.43
2023-07-24T02:38:25.653Z,8.37
2023-07-24T02:40:28.693Z,10.70
2023-07-24T02:42:31.723Z,9.57
2023-07-24T02:44:36.111Z,8.73
2023-07-24T02:46:39.226Z,7.97
2023-07-24T02:48:43.852Z,8.50
2023-07-24T02:50:46.984Z,8.70
2023-07-24T02:52:50.056Z,9.77
2023-07-24T02:54:53.200Z,9.23
2023-07-24T02:56:56.284Z,10.20
2023-07-24T02:58:59.447Z,8.87
2023-07-24T03:01:07.521Z,9.27
2023-07-24T03:03:10.742Z,14.60
2023-07-24T03:05:14.312Z,10.97
2023-07-24T03:07:17.395Z,8.70
2023-07-24T03:09:20.464Z,9.70
2023-07-24T03:11:23.502Z,9.03
2023-07-24T03:13:25.528Z,11.00
2023-07-24T03:15:28.726Z,11.00
2023-07-24T03:17:32.051Z,10.37
2023-07-24T03:19:35.138Z,11.20
2023-07-24T03:21:39.915Z,8.60
2023-07-24T03:23:42.980Z,8.77
2023-07-24T03:25:46.146Z,8.80
2023-07-24T03:27:49.377Z,9.33
2023-07-24T03:29:52.430Z,8.83
2023-07-24T03:31:55.757Z,11.73
2023-07-24T03:33:58.849Z,11.17
2023-07-24T03:36:02.032Z,9.73
2023-07-24T03:38:06.760Z,10.73
2023-07-24T03:40:10.571Z,9.77
2023-07-24T03:42:14.240Z,8.80
2023-07-24T03:44:17.319Z,9.10
2023-07-24T03:46:20.429Z,9.37
2023-07-24T03:48:22.609Z,10.70
2023-07-24T03:50:25.873Z,8.97
2023-07-24T03:52:28.971Z,10.00
2023-07-24T03:54:33.379Z,9.50
2023-07-24T03:56:36.404Z,9.33
2023-07-24T03:58:40.504Z,12.03
2023-07-24T04:00:43.639Z,9.47
2023-07-24T04:02:46.887Z,10.20
2023-07-24T04:04:50.064Z,7.90
2023-07-24T04:06:53.148Z,10.50
2023-07-24T04:08:56.217Z,8.90
2023-07-24T04:11:00.707Z,9.43
2023-07-24T04:13:03.768Z,9.73
2023-07-24T04:15:08.013Z,8.63
2023-07-24T04:17:11.812Z,8.13
2023-07-24T04:19:15.173Z,10.60
2023-07-24T04:21:18.270Z,9.93
2023-07-24T04:23:21.356Z,11.30
2023-07-24T04:25:24.828Z,9.00
2023-07-24T04:27:29.506Z,10.30
2023-07-24T04:29:32.576Z,10.60
2023-07-24T04:31:35.726Z,10.30
2023-07-24T04:33:38.795Z,10.33
2023-07-24T04:35:41.828Z,9.43
2023-07-24T04:37:44.988Z,8.87
2023-07-24T04:39:47.231Z,9.00
2023-07-24T04:41:50.258Z,10.07
2023-07-24T04:43:54.663Z,10.30
2023-07-24T04:45:57.753Z,9.30
2023-07-24T04:47:59.923Z,9.50
2023-07-24T04:50:03.067Z,10.97
2023-07-24T04:52:06.859Z,10.33
2023-07-24T04:54:10.182Z,12.00
2023-07-24T04:56:13.263Z,8.80
2023-07-24T04:58:16.528Z,10.27
2023-07-24T05:00:21.204Z,8.10
2023-07-24T05:02:24.366Z,9.97
2023-07-24T05:04:27.521Z,9.73
2023-07-24T05:06:30.856Z,9.10
2023-07-24T05:08:34.101Z,10.00
2023-07-24T05:10:37.478Z,10.97
2023-07-24T05:12:43.662Z,9.53
2023-07-24T05:14:46.751Z,11.10
2023-07-24T05:16:51.287Z,9.90
2023-07-24T05:18:54.488Z,8.90
2023-07-24T05:20:57.641Z,9.70
2023-07-24T05:23:00.727Z,9.43
2023-07-24T05:25:03.858Z,9.80
2023-07-24T05:27:07.220Z,10.83
2023-07-24T05:29:10.335Z,13.07
2023-07-24T05:31:13.500Z,9.57
2023-07-24T05:33:16.902Z,11.53
2023-07-24T05:35:20.015Z,9.50
2023-07-24T05:37:23.020Z,12.80
2023-07-24T05:39:26.146Z,10.20
2023-07-24T05:41:29.250Z,9.50
2023-07-24T05:43:33.438Z,7.63
2023-07-24T05:45:35.544Z,9.87
2023-07-24T05:47:38.615Z,9.87
2023-07-24T05:49:43.062Z,9.57
2023-07-24T05:51:46.092Z,10.00
2023-07-24T05:53:49.150Z,10.13
2023-07-24T05:56:00.148Z,8.40
2023-07-24T05:58:03.272Z,9.70
2023-07-24T06:00:07.689Z,10.17
2023-07-24T06:02:19.111Z,9.43
2023-07-24T06:04:22.267Z,10.40
2023-07-24T06:06:26.868Z,11.63
2023-07-24T06:08:30.055Z,10.33
2023-07-24T06:10:33.139Z,9.00
2023-07-24T06:12:36.310Z,9.40
2023-07-24T06:14:39.338Z,8.90
2023-07-24T06:16:42.507Z,9.40
2023-07-24T06:18:45.671Z,9.40
2023-07-24T06:20:51.208Z,8.60
2023-07-24T06:22:55.764Z,8.77
2023-07-24T06:24:58.899Z,10.03
2023-07-24T06:27:02.088Z,8.67
2023-07-24T06:29:05.168Z,9.60
2023-07-24T06:31:08.333Z,9.80
2023-07-24T06:33:11.445Z,10.97
2023-07-24T06:35:14.560Z,9.40
2023-07-24T06:37:22.675Z,23.87
2023-07-24T06:39:29.719Z,14.80
2023-07-24T06:41:32.942Z,13.20
2023-07-24T06:43:36.079Z,10.43
2023-07-24T06:45:38.844Z,8.10
2023-07-24T06:47:42.038Z,12.00
2023-07-24T06:49:45.168Z,8.60
2023-07-24T06:51:48.253Z,8.83
2023-07-24T06:53:51.357Z,8.97
2023-07-24T06:55:55.797Z,9.10
2023-07-24T06:57:58.964Z,10.50
2023-07-24T07:00:02.057Z,10.23
2023-07-24T07:02:06.048Z,9.07
2023-07-24T07:04:09.136Z,9.40
2023-07-24T07:06:28.219Z,9.73
2023-07-24T07:08:36.142Z,11.00
2023-07-24T07:10:39.254Z,11.13
2023-07-24T07:12:43.983Z,12.10
2023-07-24T07:14:47.103Z,12.80
2023-07-24T07:16:50.197Z,12.40
2023-07-24T07:18:53.281Z,9.80
2023-07-24T07:20:55.358Z,11.37
2023-07-24T07:22:58.430Z,9.07
2023-07-24T07:25:01.521Z,10.40
2023-07-24T07:27:03.900Z,11.03
2023-07-24T07:29:08.324Z,10.07
2023-07-24T07:31:11.459Z,10.47
2023-07-24T07:33:14.553Z,10.13
2023-07-24T07:35:18.033Z,12.40
2023-07-24T07:37:21.137Z,14.37
2023-07-24T07:39:24.344Z,12.63
2023-07-24T07:41:27.478Z,9.53
2023-07-24T07:43:30.596Z,10.77
2023-07-24T07:45:35.424Z,11.20
2023-07-24T07:47:38.600Z,11.13
2023-07-24T07:49:41.393Z,10.00
2023-07-24T07:51:44.492Z,10.40
2023-07-24T07:53:47.570Z,10.33
2023-07-24T07:55:57.986Z,9.73
2023-07-24T07:58:01.078Z,10.00
2023-07-24T08:00:04.586Z,12.70
2023-07-24T08:02:10.771Z,10.33
2023-07-24T08:04:13.873Z,12.00
2023-07-24T08:06:16.955Z,11.40
2023-07-24T08:08:20.043Z,11.13
2023-07-24T08:10:23.218Z,11.60
2023-07-24T08:12:26.972Z,13.43
2023-07-24T08:14:30.402Z,11.27
2023-07-24T08:16:33.901Z,11.00
2023-07-24T08:18:38.832Z,12.47
2023-07-24T08:20:42.165Z,11.90
2023-07-24T08:22:45.263Z,13.73
2023-07-24T08:24:51.509Z,11.83
2023-07-24T08:26:54.789Z,10.57
2023-07-24T08:28:57.843Z,14.00
2023-07-24T08:31:05.602Z,12.23
2023-07-24T08:33:10.299Z,13.07
2023-07-24T08:35:14.791Z,9.80
2023-07-24T08:37:17.844Z,12.93
2023-07-24T08:39:20.972Z,12.50
2023-07-24T08:41:24.087Z,12.13
2023-07-24T08:43:27.296Z,13.30
2023-07-24T08:45:30.438Z,13.30
2023-07-24T08:47:33.855Z,12.80
2023-07-24T08:49:37.164Z,12.30
2023-07-24T08:51:41.928Z,12.53
2023-07-24T08:53:45.784Z,15.70
2023-07-24T08:55:51.019Z,13.60
2023-07-24T08:57:54.123Z,13.50
2023-07-24T08:59:57.346Z,13.70
2023-07-24T09:02:00.596Z,11.80
2023-07-24T09:04:03.909Z,9.67
2023-07-24T09:06:08.756Z,10.97
2023-07-24T09:08:13.277Z,12.10
2023-07-24T09:10:16.588Z,12.23
2023-07-24T09:12:19.641Z,10.30
2023-07-24T09:14:24.107Z,10.10
2023-07-24T09:16:28.403Z,12.23
2023-07-24T09:18:41.572Z,10.83
2023-07-24T09:20:45.491Z,10.97
2023-07-24T09:23:10.560Z,8.70
2023-07-24T09:25:15.413Z,10.90
2023-07-24T09:27:18.652Z,12.20
2023-07-24T09:29:21.844Z,9.57
2023-07-24T09:31:36.813Z,11.17
2023-07-24T09:33:41.254Z,9.33
2023-07-24T09:35:44.367Z,9.00
2023-07-24T09:37:48.131Z,12.53
2023-07-24T09:39:51.258Z,8.13
2023-07-24T09:41:56.000Z,11.60
2023-07-24T09:44:00.753Z,10.07
2023-07-24T09:46:06.452Z,11.50
2023-07-24T09:48:38.848Z,9.80
2023-07-24T09:50:35.358Z,10.40
2023-07-24T09:52:39.498Z,11.10
2023-07-24T09:54:47.337Z,8.97
2023-07-24T09:56:57.952Z,12.10
2023-07-24T09:59:11.845Z,10.15
2023-07-24T10:01:15.055Z,10.80
2023-07-24T10:03:18.195Z,8.80
2023-07-24T10:05:21.346Z,12.93
2023-07-24T10:07:24.846Z,9.00
2023-07-24T10:09:30.541Z,9.67
2023-07-24T10:11:34.296Z,12.63
2023-07-24T10:13:37.907Z,9.17
2023-07-24T10:15:42.828Z,10.70
2023-07-24T10:17:45.985Z,8.23
2023-07-24T10:19:49.134Z,10.40
2023-07-24T10:21:53.799Z,9.20
2023-07-24T10:23:56.950Z,8.33
2023-07-24T10:26:05.649Z,11.33
2023-07-24T10:28:11.997Z,9.20
2023-07-24T10:30:32.102Z,11.07
2023-07-24T10:32:50.949Z,9.20
2023-07-24T10:35:00.169Z,9.80
2023-07-24T10:37:04.966Z,8.83
2023-07-24T10:39:15.954Z,8.10
2023-07-24T10:41:19.053Z,11.00
2023-07-24T10:43:22.872Z,8.70
2023-07-24T10:45:26.205Z,9.60
2023-07-24T10:47:29.301Z,9.23
2023-07-24T10:49:33.735Z,9.20
2023-07-24T10:51:38.700Z,10.10
2023-07-24T10:53:46.169Z,7.10
2023-07-24T10:55:51.489Z,12.40
2023-07-24T10:57:55.511Z,10.83
2023-07-24T10:59:58.822Z,12.60
2023-07-24T11:02:04.162Z,11.47
2023-07-24T11:04:07.974Z,9.50
2023-07-24T11:06:17.001Z,7.80
2023-07-24T11:08:21.775Z,8.53
2023-07-24T11:10:25.584Z,7.83
2023-07-24T11:12:31.996Z,9.87
2023-07-24T11:14:35.045Z,8.97
2023-07-24T11:16:38.445Z,7.73
2023-07-24T11:18:54.637Z,9.67
2023-07-24T11:20:58.622Z,8.03
2023-07-24T11:23:02.862Z,7.57
2023-07-24T11:25:07.521Z,8.87
2023-07-24T11:27:12.585Z,7.80
2023-07-24T11:29:15.875Z,9.37
2023-07-24T11:31:20.952Z,8.20
2023-07-24T11:33:24.753Z,8.77
2023-07-24T11:35:28.182Z,7.80
2023-07-24T11:37:31.526Z,7.60
2023-07-24T11:39:35.984Z,7.87
2023-07-24T11:41:39.309Z,8.67
2023-07-24T11:43:48.097Z,9.00
2023-07-24T11:45:53.244Z,8.47
2023-07-24T11:47:57.362Z,7.53
2023-07-24T11:50:01.616Z,8.47
2023-07-24T11:52:06.991Z,7.43
2023-07-24T11:54:12.675Z,7.90
2023-07-24T11:56:19.052Z,8.43
2023-07-24T11:58:22.809Z,7.77
2023-07-24T12:00:25.067Z,8.80
2023-07-24T12:02:29.218Z,7.60
2023-07-24T12:04:33.088Z,7.20
2023-07-24T12:06:36.213Z,8.40
2023-07-24T12:08:39.874Z,6.77
2023-07-24T12:10:43.385Z,7.93
2023-07-24T12:12:48.820Z,7.30
2023-07-24T12:14:53.143Z,8.13
2023-07-24T12:17:03.048Z,6.87
2023-07-24T12:19:07.079Z,7.97
2023-07-24T12:21:09.496Z,5.90
2023-07-24T12:23:12.643Z,6.03
2023-07-24T12:25:16.504Z,6.80
2023-07-24T12:27:19.666Z,5.90
2023-07-24T12:29:24.181Z,7.60
2023-07-24T12:31:27.702Z,7.03
2023-07-24T12:33:30.897Z,5.97
2023-07-24T12:35:34.009Z,6.80
2023-07-24T12:37:37.262Z,5.93
2023-07-24T12:39:40.378Z,6.07
2023-07-24T12:41:43.385Z,6.57
2023-07-24T12:43:46.823Z,6.37
2023-07-24T12:45:51.320Z,6.97
2023-07-24T12:47:56.447Z,7.90
2023-07-24T12:50:00.478Z,6.90
2023-07-24T12:52:04.317Z,8.40
2023-07-24T12:54:39.579Z,7.90
2023-07-24T12:56:30.530Z,6.10
2023-07-24T12:58:33.665Z,6.77
2023-07-24T13:00:36.875Z,8.33
2023-07-24T13:02:41.381Z,9.17
2023-07-24T13:04:44.989Z,8.37
2023-07-24T13:06:48.216Z,6.93
2023-07-24T13:08:51.410Z,7.70
2023-07-24T13:10:54.587Z,6.80
2023-07-24T13:12:57.934Z,7.07
2023-07-24T13:15:00.979Z,7.77
2023-07-24T13:17:04.257Z,6.93
2023-07-24T13:19:08.842Z,8.40
2023-07-24T13:21:11.872Z,7.00
2023-07-24T13:23:16.256Z,6.10
2023-07-24T13:25:20.553Z,9.70
2023-07-24T13:27:23.597Z,9.13
2023-07-24T13:29:26.933Z,8.33
2023-07-24T13:31:30.822Z,7.87
2023-07-24T13:33:34.042Z,7.80
2023-07-24T13:35:38.581Z,8.23
2023-07-24T13:37:41.666Z,6.50
2023-07-24T13:39:44.795Z,11.43
2023-07-24T13:41:47.883Z,8.83
2023-07-24T13:43:51.075Z,7.73
2023-07-24T13:45:54.356Z,6.43
2023-07-24T13:47:59.269Z,9.13
2023-07-24T13:50:04.572Z,7.10
2023-07-24T13:52:09.399Z,8.70
2023-07-24T13:54:12.697Z,7.70
2023-07-24T13:56:16.184Z,7.53
2023-07-24T13:58:19.466Z,7.40
2023-07-24T14:00:22.635Z,6.27
2023-07-24T14:02:28.484Z,8.97
2023-07-24T14:04:34.598Z,7.27
2023-07-24T14:06:37.738Z,6.00
2023-07-24T14:08:42.241Z,5.70
2023-07-24T14:10:45.355Z,6.73
2023-07-24T14:12:48.664Z,6.00
2023-07-24T14:14:51.782Z,10.37
2023-07-24T14:16:54.994Z,8.60
2023-07-24T14:18:58.166Z,7.77
2023-07-24T14:21:01.285Z,7.50
2023-07-24T14:23:04.397Z,7.83
2023-07-24T14:25:10.025Z,6.60
2023-07-24T14:27:13.153Z,7.53
2023-07-24T14:29:18.322Z,6.33
2023-07-24T14:31:21.808Z,6.43
2023-07-24T14:33:24.902Z,7.10
2023-07-24T14:35:28.150Z,7.83
2023-07-24T14:37:32.067Z,6.17
2023-07-24T14:39:35.411Z,9.40
2023-07-24T14:41:40.104Z,7.60
2023-07-24T14:43:43.227Z,7.63
2023-07-24T14:45:46.392Z,15.40
2023-07-24T14:47:49.919Z,6.00
2023-07-24T14:49:53.110Z,7.20
2023-07-24T14:51:56.258Z,6.70
2023-07-24T14:53:59.461Z,7.17
2023-07-24T14:56:02.573Z,5.77
2023-07-24T14:58:07.094Z,5.23
2023-07-24T15:00:11.036Z,5.17
2023-07-24T15:02:14.213Z,5.43
2023-07-24T15:04:17.351Z,4.77
2023-07-24T15:06:20.432Z,5.07
2023-07-24T15:08:23.535Z,6.40
2023-07-24T15:10:26.729Z,4.63
2023-07-24T15:12:29.936Z,7.37
2023-07-24T15:14:34.391Z,5.23
2023-07-24T15:16:37.516Z,7.83
2023-07-24T15:18:40.653Z,7.40
2023-07-24T15:20:43.769Z,5.27
2023-07-24T15:22:46.890Z,6.20
2023-07-24T15:24:49.969Z,6.53
2023-07-24T15:26:53.181Z,6.70
2023-07-24T15:28:56.302Z,4.47
2023-07-24T15:31:00.853Z,5.03
2023-07-24T15:33:04.051Z,4.50
2023-07-24T15:35:08.047Z,6.13
2023-07-24T15:37:11.611Z,6.07
2023-07-24T15:39:13.772Z,4.97
2023-07-24T15:41:16.868Z,5.33
2023-07-24T15:43:19.971Z,4.90
2023-07-24T15:45:23.135Z,4.40
2023-07-24T15:47:27.977Z,5.00
2023-07-24T15:49:31.119Z,7.90
2023-07-24T15:51:34.588Z,5.77
2023-07-24T15:53:37.914Z,4.10
2023-07-24T15:55:41.042Z,4.43
2023-07-24T15:57:44.178Z,4.57
2023-07-24T15:59:47.256Z,4.53
2023-07-24T16:01:51.773Z,5.30
2023-07-24T16:03:56.253Z,5.73
2023-07-24T16:05:58.384Z,4.23
2023-07-24T16:08:01.877Z,4.37
2023-07-24T16:10:05.843Z,5.40
2023-07-24T16:12:09.155Z,4.70
2023-07-24T16:14:11.215Z,4.27
2023-07-24T16:16:15.594Z,4.17
2023-07-24T16:18:18.174Z,4.63
2023-07-24T16:20:23.237Z,6.50
2023-07-24T16:22:26.360Z,4.40
2023-07-24T16:24:29.462Z,4.80
2023-07-24T16:26:31.930Z,4.40
2023-07-24T16:28:35.334Z,3.93
2023-07-24T16:30:38.537Z,5.10
2023-07-24T16:32:49.210Z,4.43
2023-07-24T16:34:53.628Z,5.30
2023-07-24T16:36:58.016Z,4.13
2023-07-24T16:39:01.160Z,6.40
2023-07-24T16:41:04.740Z,6.50
2023-07-24T16:43:07.896Z,6.93
2023-07-24T16:45:11.202Z,5.30
2023-07-24T16:47:31.847Z,5.90
2023-07-24T16:49:34.983Z,4.83
2023-07-24T16:51:38.092Z,4.97
2023-07-24T16:53:42.529Z,5.53
2023-07-24T16:55:45.771Z,5.63
2023-07-24T16:57:49.013Z,5.73
2023-07-24T16:59:53.127Z,5.03
2023-07-24T17:01:56.919Z,5.90
2023-07-24T17:04:00.070Z,5.83
2023-07-24T17:06:03.277Z,6.00
2023-07-24T17:08:06.637Z,4.43
2023-07-24T17:10:12.798Z,5.87
2023-07-24T17:12:15.978Z,7.13
2023-07-24T17:14:19.083Z,4.63
2023-07-24T17:16:22.395Z,7.03
2023-07-24T17:18:26.073Z,4.70
2023-07-24T17:20:29.234Z,4.30
2023-07-24T17:22:32.463Z,7.03
2023-07-24T17:24:34.630Z,4.97
2023-07-24T17:26:39.738Z,6.17
2023-07-24T17:28:44.063Z,6.30
2023-07-24T17:30:47.218Z,5.93
2023-07-24T17:32:50.411Z,5.77
2023-07-24T17:34:53.594Z,5.47
2023-07-24T17:36:57.234Z,5.37
2023-07-24T17:39:02.069Z,6.43
2023-07-24T17:41:05.318Z,4.90
2023-07-24T17:43:09.854Z,4.73
2023-07-24T17:45:15.851Z,4.80
2023-07-24T17:47:18.954Z,5.17
2023-07-24T17:49:22.158Z,4.80
2023-07-24T17:51:25.391Z,4.80
2023-07-24T17:53:28.550Z,4.80
2023-07-24T17:55:31.626Z,4.13
2023-07-24T17:57:35.031Z,4.83
2023-07-24T17:59:39.726Z,6.20
2023-07-24T18:01:42.894Z,3.83
2023-07-24T18:03:46.035Z,3.60
2023-07-24T18:05:49.238Z,4.30
2023-07-24T18:07:53.400Z,4.13
2023-07-24T18:09:56.774Z,4.47
2023-07-24T18:12:00.486Z,3.40
2023-07-24T18:14:03.615Z,4.83
2023-07-24T18:16:08.790Z,4.83
2023-07-24T18:18:12.149Z,4.03
2023-07-24T18:20:15.581Z,3.57
2023-07-24T18:22:20.390Z,6.17
2023-07-24T18:24:24.637Z,3.50
2023-07-24T18:26:28.060Z,4.50
2023-07-24T18:28:31.186Z,5.80
2023-07-24T18:30:34.341Z,3.80
2023-07-24T18:32:39.042Z,3.40
2023-07-24T18:34:42.314Z,2.73
2023-07-24T18:36:45.399Z,3.93
2023-07-24T18:38:48.644Z,4.33
2023-07-24T18:40:51.969Z,2.73
2023-07-24T18:42:55.128Z,2.30
2023-07-24T18:44:58.309Z,3.03
2023-07-24T18:47:01.501Z,3.03
2023-07-24T18:49:09.227Z,2.63
2023-07-24T18:51:12.438Z,3.27
2023-07-24T18:53:15.615Z,6.70
2023-07-24T18:55:17.943Z,4.83
2023-07-24T18:57:21.861Z,3.40
2023-07-24T18:59:25.111Z,3.50
2023-07-24T19:01:28.728Z,3.20
2023-07-24T19:03:32.314Z,3.57
2023-07-24T19:05:37.409Z,2.70
2023-07-24T19:07:40.701Z,3.03
2023-07-24T19:09:43.865Z,4.00
2023-07-24T19:11:47.040Z,2.63
2023-07-24T19:13:50.213Z,2.97
2023-07-24T19:15:53.361Z,4.07
2023-07-24T19:17:56.545Z,3.10
2023-07-24T19:19:59.698Z,5.07
2023-07-24T19:22:04.674Z,2.90
2023-07-24T19:24:08.734Z,2.93
2023-07-24T19:26:14.283Z,3.20
2023-07-24T19:28:17.464Z,3.40
2023-07-24T19:30:19.671Z,2.70
2023-07-24T19:32:25.481Z,3.63
2023-07-24T19:34:28.944Z,3.53
2023-07-24T19:36:32.047Z,12.70
2023-07-24T19:38:36.777Z,7.63
2023-07-24T19:40:40.031Z,7.00
2023-07-24T19:42:43.208Z,6.17
2023-07-24T19:44:46.352Z,4.47
2023-07-24T19:46:48.629Z,4.00
2023-07-24T19:48:51.775Z,3.07
2023-07-24T19:50:56.422Z,3.00
2023-07-24T19:52:59.641Z,2.50
2023-07-24T19:55:04.095Z,2.90
2023-07-24T19:57:08.172Z,6.77
2023-07-24T19:59:11.524Z,3.23
2023-07-24T20:01:13.877Z,4.30
2023-07-24T20:03:17.464Z,6.13
2023-07-24T20:05:21.445Z,3.90
2023-07-24T20:07:24.824Z,3.50
2023-07-24T20:09:28.689Z,3.10
2023-07-24T20:11:33.347Z,2.60
2023-07-24T20:13:38.955Z,2.43
2023-07-24T20:15:43.138Z,4.90
2023-07-24T20:17:46.375Z,2.67
2023-07-24T20:19:49.594Z,3.37
2023-07-24T20:21:52.881Z,3.30
2023-07-24T20:23:56.772Z,2.80
2023-07-24T20:26:00.029Z,4.30
2023-07-24T20:28:04.640Z,3.60
2023-07-24T20:30:09.345Z,2.60
2023-07-24T20:32:11.718Z,3.50
2023-07-24T20:34:14.962Z,2.77
2023-07-24T20:36:18.135Z,3.50
2023-07-24T20:38:25.437Z,3.17
2023-07-24T20:40:28.699Z,3.27
2023-07-24T20:42:32.344Z,2.93
2023-07-24T20:44:36.881Z,3.80
2023-07-24T20:46:40.033Z,4.33
2023-07-24T20:48:43.374Z,3.97
2023-07-24T20:50:47.040Z,2.77
2023-07-24T20:52:50.322Z,3.23
2023-07-24T20:54:53.516Z,2.43
2023-07-24T20:56:56.611Z,2.73
2023-07-24T20:58:59.749Z,2.90
2023-07-24T21:01:03.316Z,3.20
2023-07-24T21:03:06.531Z,2.97
2023-07-24T21:05:10.546Z,4.00
2023-07-24T21:07:13.743Z,2.90
2023-07-24T21:09:18.103Z,10.60
2023-07-24T21:11:21.300Z,3.40
2023-07-24T21:13:24.590Z,5.00
2023-07-24T21:15:27.692Z,3.70
2023-07-24T21:17:32.169Z,7.60
2023-07-24T21:19:35.314Z,3.17
2023-07-24T21:21:38.388Z,3.07
2023-07-24T21:23:41.559Z,4.80
2023-07-24T21:25:54.020Z,3.13
2023-07-24T21:27:57.118Z,2.50
2023-07-24T21:30:00.303Z,3.30
2023-07-24T21:32:03.400Z,3.80
2023-07-24T21:34:06.932Z,3.87
2023-07-24T21:36:10.112Z,3.10
2023-07-24T21:38:14.240Z,3.37
2023-07-24T21:40:18.250Z,2.90
2023-07-24T21:42:21.402Z,4.33
2023-07-24T21:44:24.627Z,4.13
2023-07-24T21:46:27.697Z,4.03
2023-07-24T21:48:31.027Z,3.07
2023-07-24T21:50:35.558Z,5.43
2023-07-24T21:52:38.727Z,4.07
2023-07-24T21:54:41.918Z,3.10
2023-07-24T21:56:45.049Z,3.80
2023-07-24T21:58:49.259Z,3.93
2023-07-24T22:00:52.498Z,4.23
2023-07-24T22:02:55.860Z,2.90
2023-07-24T22:04:59.178Z,2.87
2023-07-24T22:07:03.751Z,2.70
2023-07-24T22:09:06.983Z,3.50
2023-07-24T22:11:13.839Z,3.63
2023-07-24T22:13:16.916Z,3.80
2023-07-24T22:15:20.095Z,3.23
2023-07-24T22:17:29.186Z,5.80
2023-07-24T22:19:32.449Z,2.80
2023-07-24T22:21:35.555Z,3.40
2023-07-24T22:23:40.073Z,3.60
2023-07-24T22:25:44.357Z,8.90
2023-07-24T22:27:47.524Z,3.80
2023-07-24T22:29:50.595Z,4.13
2023-07-24T22:31:53.741Z,4.77
2023-07-24T22:33:56.930Z,4.73
2023-07-24T22:36:00.256Z,4.53
2023-07-24T22:38:03.507Z,6.00
2023-07-24T22:40:09.655Z,3.37
2023-07-24T22:42:12.948Z,4.13
2023-07-24T22:44:16.071Z,3.10
2023-07-24T22:46:19.344Z,2.60
2023-07-24T22:48:22.610Z,3.60
2023-07-24T22:50:24.715Z,3.63
2023-07-24T22:52:27.894Z,3.40
2023-07-24T22:54:31.017Z,3.10
2023-07-24T22:56:35.515Z,3.00
2023-07-24T22:59:10.806Z,2.43
2023-07-24T23:01:13.931Z,2.90
2023-07-24T23:03:17.080Z,3.10
2023-07-24T23:05:20.265Z,3.03
2023-07-24T23:07:23.394Z,2.90
2023-07-24T23:09:26.504Z,3.37
2023-07-24T23:11:28.763Z,3.33
2023-07-24T23:13:33.460Z,3.17
2023-07-24T23:15:36.491Z,3.07
2023-07-24T23:17:39.746Z,3.10
2023-07-24T23:19:42.886Z,3.33
2023-07-24T23:21:45.897Z,3.07
2023-07-24T23:23:47.983Z,4.03
2023-07-24T23:25:51.045Z,4.50
2023-07-24T23:27:54.155Z,3.37
2023-07-24T23:29:58.608Z,3.67
2023-07-24T23:32:01.769Z,4.07
2023-07-24T23:34:03.883Z,4.47
2023-07-24T23:36:08.332Z,4.70
2023-07-24T23:38:11.592Z,7.10
2023-07-24T23:40:14.836Z,9.73
2023-07-24T23:42:16.908Z,4.50
2023-07-24T23:44:19.983Z,3.33
2023-07-24T23:46:23.473Z,3.90
2023-07-24T23:48:26.788Z,3.57
2023-07-24T23:50:29.889Z,5.10
2023-07-24T23:52:32.940Z,3.30
2023-07-24T23:54:36.013Z,5.60
2023-07-24T23:56:39.392Z,4.50
2023-07-24T23:58:42.721Z,5.40
